Time;durP1;ratioP1;P1;durP2;ratioP2;P2;SDS_P1;SDS_P2;PMS_P1;PMS_P2;Temp;Humidity;BMP_temperature;BMP_pressure;BME280_temperature;BME280_humidity;BME280_pressure;Samples;Min_cycle;Max_cycle;Signal;HPM_P1;HPM_P2
2022/10/22 00:02:00;;;;;;;0.00;0.00;;;;;;;16.14;72.70;97604.53;8186200;29;20523;-82
2022/10/22 00:06:03;;;;;;;0.00;0.00;;;;;;;16.09;73.08;97605.81;8185643;29;20458;-81
2022/10/22 00:10:08;;;;;;;0.00;0.00;;;;;;;16.13;72.88;97602.88;8186312;29;20384;-81
2022/10/22 00:14:12;;;;;;;0.00;0.00;;;;;;;16.17;72.68;97612.16;8191732;29;20235;-82
2022/10/22 00:18:14;;;;;;;0.00;0.00;;;;;;;16.18;72.63;97611.22;8191643;29;20251;-81
2022/10/22 00:22:17;;;;;;;0.00;0.00;;;;;;;16.16;72.68;97613.13;8191660;29;20247;-81
2022/10/22 00:26:21;;;;;;;0.00;0.00;;;;;;;16.21;72.55;97621.44;8191295;29;20235;-80
2022/10/22 00:30:24;;;;;;;0.00;0.00;;;;;;;16.28;72.62;97624.44;8191499;29;20463;-81
2022/10/22 00:34:27;;;;;;;0.00;0.00;;;;;;;16.28;72.22;97632.28;8191058;29;20271;-81
2022/10/22 00:38:29;;;;;;;0.00;0.00;;;;;;;16.21;72.23;97629.25;8190936;29;20235;-83
2022/10/22 00:42:33;;;;;;;0.00;0.00;;;;;;;16.19;72.45;97625.94;8190911;29;20227;-81
2022/10/22 00:46:36;;;;;;;0.00;0.00;;;;;;;16.16;72.42;97630.53;8206703;28;20240;-79
2022/10/22 00:50:41;;;;;;;0.00;0.00;;;;;;;16.20;73.07;97622.38;8191501;29;20235;-82
2022/10/22 00:54:44;;;;;;;0.00;0.00;;;;;;;16.21;73.11;97629.25;8192423;29;20240;-82
2022/10/22 00:58:51;;;;;;;0.00;0.00;;;;;;;16.27;73.00;97621.94;8192479;29;20235;-81
2022/10/22 01:02:54;;;;;;;0.00;0.00;;;;;;;16.23;73.82;97624.75;8192403;29;20231;-83
2022/10/22 01:06:57;;;;;;;0.00;0.00;;;;;;;16.32;73.01;97625.88;8191310;29;20246;-81
2022/10/22 01:11:08;;;;;;;0.00;0.00;;;;;;;16.34;72.65;97625.78;8189591;29;20243;-82
2022/10/22 01:15:18;;;;;;;0.00;0.00;;;;;;;16.38;72.74;97621.97;8189791;29;20242;-81
2022/10/22 01:19:36;;;;;;;0.00;0.00;;;;;;;16.36;72.95;97611.63;8189365;29;20234;-80
2022/10/22 01:24:09;;;;;;;0.00;0.00;;;;;;;16.40;72.85;97609.63;8203069;28;20292;-81
2022/10/22 01:28:18;;;;;;;0.00;0.00;;;;;;;16.41;72.29;97606.91;8184613;28;20239;-81
2022/10/22 01:32:23;;;;;;;0.00;0.00;;;;;;;16.42;72.59;97602.50;8188850;29;20235;-81
2022/10/22 01:36:27;;;;;;;0.00;0.00;;;;;;;16.46;72.29;97597.91;8189147;29;20329;-84
2022/10/22 01:40:30;;;;;;;0.00;0.00;;;;;;;16.47;72.55;97596.94;8188792;29;20458;-82
2022/10/22 01:44:34;;;;;;;0.00;0.00;;;;;;;16.47;72.78;97589.09;8189025;29;20243;-83
2022/10/22 01:48:56;;;;;;;0.00;0.00;;;;;;;16.41;72.46;97582.53;8203168;28;20246;-84
2022/10/22 01:53:10;;;;;;;0.00;0.00;;;;;;;16.39;72.08;97592.28;8188490;29;20306;-82
2022/10/22 01:57:18;;;;;;;0.00;0.00;;;;;;;16.43;72.33;97580.66;8188423;29;20403;-82
2022/10/22 02:01:26;;;;;;;0.00;0.00;;;;;;;16.39;72.31;97563.53;8188434;29;20239;-82
2022/10/22 02:05:35;;;;;;;0.00;0.00;;;;;;;16.40;71.89;97563.41;8188217;29;20255;-83
2022/10/22 02:09:39;;;;;;;0.00;0.00;;;;;;;16.47;72.02;97574.25;8195540;29;20244;-82
2022/10/22 02:13:44;;;;;;;0.00;0.00;;;;;;;16.45;71.86;97567.47;8187992;29;20236;-82
2022/10/22 02:17:48;;;;;;;0.00;0.00;;;;;;;16.46;71.56;97564.75;8187732;29;20235;-82
2022/10/22 02:21:53;;;;;;;0.00;0.00;;;;;;;16.48;71.50;97562.03;8187533;29;20475;-83
2022/10/22 02:26:00;;;;;;;0.00;0.00;;;;;;;16.45;70.79;97562.25;8187465;29;20231;-83
2022/10/22 02:30:05;;;;;;;0.00;0.00;;;;;;;16.49;70.97;97577.59;8187650;29;20245;-83
2022/10/22 02:34:12;;;;;;;0.00;0.00;;;;;;;16.45;71.49;97591.00;8186887;29;20231;-83
2022/10/22 02:38:17;;;;;;;0.00;0.00;;;;;;;16.42;71.69;97600.72;8187233;29;20515;-82
2022/10/22 02:42:20;;;;;;;0.00;0.00;;;;;;;16.33;71.66;97583.09;8187419;29;20232;-83
2022/10/22 02:46:23;;;;;;;0.00;0.00;;;;;;;16.39;71.51;97580.06;8187178;29;20310;-83
2022/10/22 02:50:25;;;;;;;0.00;0.00;;;;;;;16.21;70.34;97573.56;8186973;29;20291;-83
2022/10/22 02:54:30;;;;;;;0.00;0.00;;;;;;;16.27;69.98;97573.13;8186829;29;20302;-83
2022/10/22 02:58:32;;;;;;;0.00;0.00;;;;;;;16.30;69.72;97575.50;8187221;29;20232;-83
2022/10/22 03:02:36;;;;;;;0.00;0.00;;;;;;;16.31;69.50;97573.72;8187009;29;20239;-83
2022/10/22 03:06:42;;;;;;;0.00;0.00;;;;;;;16.25;68.56;97577.63;8201866;28;20543;-83
2022/10/22 03:10:46;;;;;;;0.00;0.00;;;;;;;16.31;68.63;97577.16;8186516;29;20294;-84
2022/10/22 03:14:49;;;;;;;0.00;0.00;;;;;;;16.33;68.86;97585.72;8186747;29;20417;-84
2022/10/22 03:18:52;;;;;;;0.00;0.00;;;;;;;16.29;69.51;97591.31;8187487;29;20242;-84
2022/10/22 03:22:55;;;;;;;0.00;0.00;;;;;;;16.33;69.45;97611.03;8186273;29;20231;-83
2022/10/22 03:27:00;;;;;;;0.00;0.00;;;;;;;16.14;69.17;97614.97;8201137;29;20243;-83
2022/10/22 03:31:02;;;;;;;0.00;0.00;;;;;;;16.28;69.10;97614.00;8186345;29;20231;-83
2022/10/22 03:35:06;;;;;;;0.00;0.00;;;;;;;16.20;68.17;97622.38;8186285;29;20231;-83
2022/10/22 03:39:09;;;;;;;0.00;0.00;;;;;;;16.28;69.46;97620.97;8186025;29;20235;-83
2022/10/22 03:43:14;;;;;;;0.00;0.00;;;;;;;16.27;69.41;97635.00;8186060;29;20287;-83
2022/10/22 03:47:17;;;;;;;0.00;0.00;;;;;;;16.25;69.74;97640.31;8189367;29;20242;-82
2022/10/22 03:51:20;;;;;;;0.00;0.00;;;;;;;16.19;70.03;97649.44;8192094;29;20423;-83
2022/10/22 03:55:23;;;;;;;0.10;0.10;;;;;;;16.23;69.58;97655.28;8192165;29;20242;-82
2022/10/22 03:59:27;;;;;;;0.00;0.00;;;;;;;16.26;68.57;97656.84;8191962;29;20231;-83
2022/10/22 04:03:29;;;;;;;0.00;0.00;;;;;;;16.26;68.35;97664.66;8191565;29;20243;-83
2022/10/22 04:07:32;;;;;;;0.00;0.00;;;;;;;16.26;69.35;97672.50;8191428;29;20231;-83
2022/10/22 04:11:35;;;;;;;0.00;0.00;;;;;;;16.29;68.29;97672.28;8191216;29;20316;-83
2022/10/22 04:15:39;;;;;;;0.00;0.00;;;;;;;16.26;69.20;97682.97;8198905;28;20236;-82
2022/10/22 04:19:42;;;;;;;0.00;0.00;;;;;;;16.22;68.86;97690.19;8191229;29;20247;-82
2022/10/22 04:23:45;;;;;;;0.00;0.00;;;;;;;16.19;68.47;97688.63;8190755;29;20232;-82
2022/10/22 04:27:48;;;;;;;0.00;0.00;;;;;;;15.98;69.70;97677.94;8191129;29;20244;-82
2022/10/22 04:31:52;;;;;;;0.00;0.00;;;;;;;16.06;69.14;97684.41;8190866;29;20247;-83
2022/10/22 04:35:55;;;;;;;0.00;0.00;;;;;;;16.14;69.06;97705.56;8190815;29;20235;-82
2022/10/22 04:39:58;;;;;;;0.00;0.00;;;;;;;15.95;70.26;97698.22;8190590;29;20239;-82
2022/10/22 04:44:00;;;;;;;0.00;0.00;;;;;;;16.05;70.23;97709.69;8190666;29;20231;-82
2022/10/22 04:48:06;;;;;;;0.00;0.00;;;;;;;16.02;70.26;97708.09;8190428;29;20483;-83
2022/10/22 04:52:08;;;;;;;0.00;0.00;;;;;;;15.96;70.73;97713.78;8190221;29;20235;-83
2022/10/22 04:56:15;;;;;;;0.00;0.00;;;;;;;15.96;70.63;97708.56;8189742;29;20236;-83
2022/10/22 05:00:18;;;;;;;0.00;0.00;;;;;;;15.98;70.59;97716.28;8189067;29;20235;-82
2022/10/22 05:04:22;;;;;;;0.00;0.00;;;;;;;15.86;70.47;97712.75;8189330;29;20254;-83
2022/10/22 05:08:24;;;;;;;0.00;0.00;;;;;;;15.93;70.22;97713.16;8189153;29;20479;-83
2022/10/22 05:12:28;;;;;;;0.07;0.07;;;;;;;15.96;69.76;97716.38;8189074;29;20243;-82
2022/10/22 05:16:31;;;;;;;0.00;0.00;;;;;;;15.94;70.20;97725.28;8189436;29;20460;-82
2022/10/22 05:20:39;;;;;;;0.00;0.00;;;;;;;15.89;70.04;97720.38;8189329;29;20235;-83
2022/10/22 05:24:42;;;;;;;0.00;0.00;;;;;;;15.90;69.99;97722.03;8203163;28;20368;-83
2022/10/22 05:28:46;;;;;;;0.00;0.00;;;;;;;15.88;69.87;97718.72;8188792;29;20240;-83
2022/10/22 05:32:48;;;;;;;0.00;0.00;;;;;;;15.88;69.82;97730.91;8188924;29;20405;-84
2022/10/22 05:36:52;;;;;;;0.10;0.10;;;;;;;15.77;69.81;97739.50;8197980;29;20250;-84
2022/10/22 05:41:01;;;;;;;0.00;0.00;;;;;;;15.80;69.57;97726.22;8196917;29;20239;-84
2022/10/22 05:45:05;;;;;;;0.00;0.00;;;;;;;15.73;69.86;97722.34;8191074;29;20335;-83
2022/10/22 05:49:09;;;;;;;0.00;0.00;;;;;;;15.69;69.66;97726.09;8187821;29;20239;-83
2022/10/22 05:53:13;;;;;;;0.00;0.00;;;;;;;15.73;69.90;97731.03;8187952;29;20298;-83
2022/10/22 05:57:16;;;;;;;0.00;0.00;;;;;;;15.74;69.71;97747.53;8187466;29;20431;-82
2022/10/22 06:01:21;;;;;;;0.00;0.00;;;;;;;15.70;69.74;97759.09;8187163;29;20254;-83
2022/10/22 06:05:23;;;;;;;0.00;0.00;;;;;;;15.74;70.03;97790.13;8187098;29;20503;-84
2022/10/22 06:09:29;;;;;;;0.00;0.00;;;;;;;15.79;69.33;97803.72;8186115;29;20235;-85
2022/10/22 06:13:32;;;;;;;0.00;0.00;;;;;;;15.76;69.53;97821.38;8186263;29;20370;-85
2022/10/22 06:17:35;;;;;;;0.10;0.10;;;;;;;15.73;69.90;97829.41;8186390;29;20327;-84
2022/10/22 06:21:38;;;;;;;0.00;0.00;;;;;;;15.70;69.71;97824.38;8201435;28;20254;-83
2022/10/22 06:25:42;;;;;;;0.00;0.00;;;;;;;15.71;69.54;97823.44;8186447;29;20236;-83
2022/10/22 06:29:45;;;;;;;0.00;0.00;;;;;;;15.69;70.16;97826.16;8185801;29;20243;-83
2022/10/22 06:33:48;;;;;;;0.00;0.00;;;;;;;15.99;71.27;97814.56;8185593;29;20247;-84
2022/10/22 06:37:51;;;;;;;0.07;0.07;;;;;;;16.69;75.23;97823.63;8186319;29;20235;-90
2022/10/22 06:41:55;;;;;;;0.00;0.00;;;;;;;17.24;71.42;97831.91;8186497;29;20298;-88
2022/10/22 06:46:00;;;;;;;0.00;0.00;;;;;;;17.56;67.71;97837.38;8186836;29;20341;-91
2022/10/22 06:50:04;;;;;;;0.00;0.00;;;;;;;17.55;65.70;97840.94;8186182;29;20236;-84
2022/10/22 06:54:07;;;;;;;0.00;0.00;;;;;;;16.44;67.23;97845.47;8185282;29;20314;-85
2022/10/22 06:58:11;;;;;;;0.00;0.00;;;;;;;16.46;67.24;97854.03;8185512;29;20238;-87
2022/10/22 07:02:14;;;;;;;0.00;0.00;;;;;;;16.97;65.66;97859.13;8183807;29;20414;-83
2022/10/22 07:06:16;;;;;;;0.00;0.00;;;;;;;16.64;67.11;97867.56;8184957;29;20263;-85
2022/10/22 07:10:19;;;;;;;0.00;0.00;;;;;;;16.60;66.96;97875.66;8185363;29;20604;-82
2022/10/22 07:14:23;;;;;;;0.00;0.00;;;;;;;17.16;64.35;97887.44;8184334;29;20724;-83
2022/10/22 07:18:26;;;;;;;0.00;0.00;;;;;;;16.61;66.45;97887.75;8185458;29;20232;-85
2022/10/22 07:22:29;;;;;;;0.00;0.00;;;;;;;16.44;66.73;97893.34;8190610;29;20266;-83
2022/10/22 07:26:31;;;;;;;0.00;0.00;;;;;;;16.47;69.23;97887.91;8192522;29;20238;-82
2022/10/22 07:30:37;;;;;;;0.00;0.00;;;;;;;16.47;66.94;97903.59;8192935;29;20520;-85
2022/10/22 07:34:40;;;;;;;0.00;0.00;;;;;;;16.34;67.41;97910.59;8207265;28;20237;-84
2022/10/22 07:38:46;;;;;;;0.00;0.00;;;;;;;16.70;66.16;97922.91;8191537;29;20240;-85
2022/10/22 07:42:49;;;;;;;0.00;0.00;;;;;;;16.71;66.09;97916.72;8191494;29;20322;-84
2022/10/22 07:46:53;;;;;;;0.00;0.00;;;;;;;16.61;66.12;97924.34;8191530;29;20450;-84
2022/10/22 07:50:57;;;;;;;0.00;0.00;;;;;;;16.80;66.82;97912.63;8191193;29;20257;-84
2022/10/22 07:54:59;;;;;;;0.00;0.00;;;;;;;17.61;64.59;97902.47;8191515;29;20542;-83
2022/10/22 07:59:02;;;;;;;0.00;0.00;;;;;;;17.96;63.15;97905.94;8191172;29;20236;-86
2022/10/22 08:03:06;;;;;;;0.00;0.00;;;;;;;17.83;63.28;97904.34;8191488;29;20231;-85
2022/10/22 08:07:09;;;;;;;0.00;0.00;;;;;;;18.04;62.91;97905.38;8190526;29;20231;-86
2022/10/22 08:11:12;;;;;;;0.00;0.00;;;;;;;18.09;63.00;97910.28;8191230;29;20539;-85
2022/10/22 08:15:15;;;;;;;0.00;0.00;;;;;;;18.29;62.62;97916.59;8191708;29;20246;-85
2022/10/22 08:19:20;;;;;;;0.00;0.00;;;;;;;18.81;60.86;97930.09;8191538;29;20298;-84
2022/10/22 08:23:22;;;;;;;0.00;0.00;;;;;;;19.20;58.48;97943.66;8190444;29;20231;-84
2022/10/22 08:27:29;;;;;;;0.00;0.00;;;;;;;18.91;59.48;97949.44;8190433;29;20238;-85
2022/10/22 08:31:31;;;;;;;0.00;0.00;;;;;;;19.04;60.17;97955.38;8190384;29;20239;-83
2022/10/22 08:35:35;;;;;;;0.00;0.00;;;;;;;19.18;60.48;97964.78;8190479;29;20413;-86
2022/10/22 08:39:38;;;;;;;0.00;0.00;;;;;;;19.91;58.89;97951.91;8206377;28;20569;-86
2022/10/22 08:43:58;;;;;;;0.00;0.00;;;;;;;19.98;58.40;97955.69;8190210;29;20238;-87
2022/10/22 08:48:10;;;;;;;0.00;0.00;;;;;;;20.15;57.79;97954.28;8190808;29;20239;-86
2022/10/22 08:52:17;;;;;;;0.00;0.00;;;;;;;21.06;55.13;97955.28;8191643;29;20250;-88
2022/10/22 08:56:22;;;;;;;0.00;0.00;;;;;;;21.66;53.55;97949.16;8190329;29;20243;-88
2022/10/22 09:00:31;;;;;;;0.00;0.00;;;;;;;22.31;51.79;97952.03;8190143;29;20239;-88
2022/10/22 09:04:40;;;;;;;0.00;0.00;;;;;;;22.69;50.29;97959.97;8190052;29;20250;-88
2022/10/22 09:08:46;;;;;;;0.00;0.00;;;;;;;21.82;51.80;97969.72;8204576;28;20412;-89
2022/10/22 09:12:49;;;;;;;0.00;0.00;;;;;;;21.81;51.54;97963.59;8189523;29;20240;-87
2022/10/22 09:17:09;;;;;;;0.00;0.00;;;;;;;21.29;52.91;97968.25;8189866;29;20251;-88
2022/10/22 09:21:19;;;;;;;0.00;0.00;;;;;;;20.95;54.87;97975.63;8190224;29;20236;-84
2022/10/22 09:25:26;;;;;;;0.00;0.00;;;;;;;20.66;56.05;97976.34;8189775;29;20227;-84
2022/10/22 09:29:32;;;;;;;0.00;0.00;;;;;;;20.36;56.95;97969.22;8189701;29;20243;-83
2022/10/22 09:33:35;;;;;;;0.00;0.00;;;;;;;20.08;56.37;97971.53;8189373;29;20262;-84
2022/10/22 09:37:47;;;;;;;0.00;0.00;;;;;;;20.84;55.25;97972.09;8203649;28;20231;-83
2022/10/22 09:41:52;;;;;;;0.00;0.00;;;;;;;20.44;54.82;97972.03;8191235;29;20239;-83
2022/10/22 09:46:00;;;;;;;0.00;0.00;;;;;;;21.04;53.58;97980.91;8190175;29;20236;-83
2022/10/22 09:50:19;;;;;;;0.00;0.00;;;;;;;21.61;53.10;97981.22;8190057;29;20239;-81
2022/10/22 09:54:23;;;;;;;0.00;0.00;;;;;;;22.01;51.00;97979.41;8196108;29;20232;-81
2022/10/22 09:58:27;;;;;;;0.00;0.00;;;;;;;21.60;51.69;97991.88;8190020;29;20257;-82
2022/10/22 10:02:30;;;;;;;0.00;0.00;;;;;;;21.40;52.75;97991.81;8188295;29;20227;-83
2022/10/22 10:06:44;;;;;;;0.00;0.00;;;;;;;21.25;53.35;97990.53;8202191;28;20436;-84
2022/10/22 10:10:49;;;;;;;0.00;0.00;;;;;;;21.58;51.99;97985.91;8189007;29;20236;-81
2022/10/22 10:15:01;;;;;;;0.00;0.00;;;;;;;22.06;51.60;97987.72;8188324;29;20531;-81
2022/10/22 10:19:31;;;;;;;0.00;0.00;;;;;;;22.67;49.79;97989.16;8187260;29;20236;-79
2022/10/22 10:23:37;;;;;;;0.00;0.00;;;;;;;22.96;49.65;97989.06;8187324;29;20246;-79
2022/10/22 10:27:42;;;;;;;0.00;0.00;;;;;;;23.22;49.84;97991.03;8202395;28;20339;-82
2022/10/22 10:31:58;;;;;;;0.00;0.00;;;;;;;23.38;47.33;97990.38;8187478;29;20307;-81
2022/10/22 10:36:04;;;;;;;0.00;0.00;;;;;;;23.57;47.23;97990.28;8187518;29;20259;-86
2022/10/22 10:40:23;;;;;;;0.00;0.00;;;;;;;22.80;48.61;97999.41;8187526;29;20291;-82
2022/10/22 10:44:36;;;;;;;0.00;0.00;;;;;;;23.00;47.97;97997.53;8187250;29;20441;-84
2022/10/22 10:48:49;;;;;;;0.00;0.00;;;;;;;22.44;50.70;98007.97;8202252;28;20241;-82
2022/10/22 10:53:01;;;;;;;0.00;0.00;;;;;;;22.11;51.29;97997.88;8187007;29;20442;-86
2022/10/22 10:57:10;;;;;;;0.00;0.00;;;;;;;22.48;50.13;98005.06;8187186;29;20242;-85
2022/10/22 11:01:19;;;;;;;0.00;0.00;;;;;;;22.56;50.43;97999.88;8187831;29;20379;-86
2022/10/22 11:05:32;;;;;;;0.00;0.00;;;;;;;23.07;49.92;98008.34;8187365;29;20257;-85
2022/10/22 11:09:37;;;;;;;0.00;0.00;;;;;;;22.73;51.12;98003.59;8187127;29;20243;-87
2022/10/22 11:13:43;;;;;;;0.00;0.00;;;;;;;22.33;50.37;98004.66;8202098;28;20250;-85
2022/10/22 11:17:47;;;;;;;0.00;0.00;;;;;;;22.45;49.92;98009.63;8187196;29;20242;-85
2022/10/22 11:21:56;;;;;;;0.00;0.00;;;;;;;22.59;48.82;98008.34;8186498;29;20405;-84
2022/10/22 11:25:59;;;;;;;0.00;0.00;;;;;;;22.56;51.20;98005.16;8187351;29;20235;-89
2022/10/22 11:30:04;;;;;;;0.00;0.00;;;;;;;22.49;49.09;98004.91;8187467;29;20440;-88
2022/10/22 11:34:13;;;;;;;0.00;0.00;;;;;;;22.55;48.72;98000.88;8186015;29;20288;-87
2022/10/22 11:38:38;;;;;;;0.00;0.00;;;;;;;22.52;47.44;98007.25;8187171;29;20249;-93
2022/10/22 11:42:45;;;;;;;0.00;0.00;;;;;;;22.60;46.11;98001.28;8194419;28;20237;-90
2022/10/22 11:46:56;;;;;;;0.00;0.00;;;;;;;22.78;46.63;97999.53;8187536;29;20235;-92
2022/10/22 11:51:01;;;;;;;0.00;0.00;;;;;;;22.59;47.40;98002.25;8187890;29;20418;-84
2022/10/22 11:55:29;;;;;;;0.00;0.00;;;;;;;22.15;47.42;98004.53;8189017;29;20357;-90
2022/10/22 11:59:38;;;;;;;0.00;0.00;;;;;;;22.45;46.74;98004.38;8186633;29;20289;-90
2022/10/22 12:03:42;;;;;;;0.00;0.00;;;;;;;22.18;48.58;98007.72;8202836;28;20265;-90
2022/10/22 12:07:55;;;;;;;0.00;0.00;;;;;;;22.08;48.12;98001.59;8190983;29;20438;-90
2022/10/22 12:12:21;;;;;;;0.00;0.00;;;;;;;21.62;49.28;98008.38;8192818;29;20240;-91
2022/10/22 12:16:24;;;;;;;0.00;0.00;;;;;;;21.41;50.12;98005.81;8188846;29;20236;-90
2022/10/22 12:20:50;;;;;;;0.00;0.00;;;;;;;21.21;51.35;98015.47;8193624;29;20299;-93
2022/10/22 12:24:54;;;;;;;0.00;0.00;;;;;;;21.74;50.43;97998.53;8195970;29;20239;-90
2022/10/22 12:28:59;;;;;;;0.00;0.00;;;;;;;22.15;50.52;97986.06;8193508;29;20283;-89
2022/10/22 12:33:03;;;;;;;0.00;0.00;;;;;;;22.30;49.63;97989.13;8194853;29;20235;-91
2022/10/22 12:37:06;;;;;;;0.00;0.00;;;;;;;22.52;49.02;97987.94;8191670;29;20235;-89
2022/10/22 12:41:10;;;;;;;0.00;0.00;;;;;;;22.58;48.81;97987.38;8191355;29;20534;-90
2022/10/22 12:45:14;;;;;;;0.00;0.00;;;;;;;22.22;48.88;97982.72;8193245;29;20239;-89
2022/10/22 12:49:20;;;;;;;0.00;0.00;;;;;;;21.95;50.13;97982.59;8191414;29;20300;-89
2022/10/22 12:53:27;;;;;;;0.00;0.00;;;;;;;21.92;49.85;97985.53;8192970;29;20235;-91
2022/10/22 12:57:29;;;;;;;0.00;0.00;;;;;;;21.68;50.23;97986.75;8192858;29;20240;-88
2022/10/22 13:01:36;;;;;;;0.00;0.00;;;;;;;21.98;49.18;97987.59;8190824;29;20235;-91
2022/10/22 13:05:38;;;;;;;0.00;0.00;;;;;;;22.41;47.20;97984.53;8206909;28;20242;-85
2022/10/22 13:09:44;;;;;;;0.00;0.00;;;;;;;22.74;47.16;97981.50;8190270;29;20264;-88
2022/10/22 13:13:47;;;;;;;0.00;0.00;;;;;;;22.72;46.64;97981.66;8189878;29;20247;-83
2022/10/22 13:18:01;;;;;;;0.00;0.00;;;;;;;23.00;46.89;97969.31;8189569;29;20236;-86
2022/10/22 13:22:04;;;;;;;0.00;0.00;;;;;;;23.16;44.70;97967.88;8188963;29;20248;-88
2022/10/22 13:26:14;;;;;;;0.00;0.00;;;;;;;23.27;44.75;97972.94;8189311;29;20231;-86
2022/10/22 13:30:22;;;;;;;0.00;0.00;;;;;;;23.27;44.22;97972.94;8189251;29;20411;-89
2022/10/22 13:34:28;;;;;;;0.00;0.00;;;;;;;23.55;44.03;97981.69;8188809;29;20239;-86
2022/10/22 13:38:31;;;;;;;0.00;0.00;;;;;;;23.66;44.22;97967.38;8188817;29;20231;-87
2022/10/22 13:42:34;;;;;;;0.00;0.00;;;;;;;23.60;43.67;97983.84;8188978;29;20480;-88
2022/10/22 13:46:41;;;;;;;0.00;0.00;;;;;;;23.27;49.97;97977.41;8201605;28;20588;-83
2022/10/22 13:50:46;;;;;;;0.00;0.00;;;;;;;23.35;48.19;97980.94;8188846;29;20252;-85
2022/10/22 13:54:49;;;;;;;0.00;0.00;;;;;;;23.22;47.35;97981.28;8183410;29;20237;-82
2022/10/22 13:58:53;;;;;;;0.00;0.00;;;;;;;23.49;44.54;97969.03;8185221;29;20238;-84
2022/10/22 14:02:58;;;;;;;0.00;0.00;;;;;;;23.47;46.29;97973.63;8187471;29;20279;-85
2022/10/22 14:07:03;;;;;;;0.00;0.00;;;;;;;23.21;46.89;97976.19;8187644;29;20313;-84
2022/10/22 14:11:06;;;;;;;0.00;0.00;;;;;;;23.28;46.73;97979.06;8187634;29;20565;-85
2022/10/22 14:15:11;;;;;;;0.00;0.00;;;;;;;22.95;44.67;97981.28;8187680;29;20526;-85
2022/10/22 14:19:15;;;;;;;0.00;0.00;;;;;;;22.49;48.05;97975.88;8187712;29;20238;-84
2022/10/22 14:23:21;;;;;;;0.00;0.00;;;;;;;22.77;47.08;97975.91;8187370;29;20228;-83
2022/10/22 14:27:24;;;;;;;0.00;0.00;;;;;;;22.55;46.85;97970.03;8186793;29;20235;-84
2022/10/22 14:31:27;;;;;;;0.00;0.00;;;;;;;22.90;45.74;97978.25;8186640;29;20242;-82
2022/10/22 14:35:30;;;;;;;0.00;0.00;;;;;;;22.92;44.65;97978.91;8186662;29;20291;-83
2022/10/22 14:39:34;;;;;;;0.00;0.00;;;;;;;22.93;45.63;97983.25;8186979;29;20573;-84
2022/10/22 14:43:37;;;;;;;0.00;0.00;;;;;;;22.93;46.80;97975.31;8202385;28;20236;-83
2022/10/22 14:47:39;;;;;;;0.00;0.00;;;;;;;22.39;48.34;97988.25;8186249;29;20496;-83
2022/10/22 14:51:42;;;;;;;0.00;0.00;;;;;;;22.35;48.02;97998.28;8186522;29;20263;-84
2022/10/22 14:55:47;;;;;;;0.00;0.00;;;;;;;22.19;47.39;97993.53;8186974;29;20232;-84
2022/10/22 14:59:53;;;;;;;0.00;0.00;;;;;;;21.93;46.78;98000.34;8185193;29;20240;-86
2022/10/22 15:03:56;;;;;;;0.00;0.00;;;;;;;21.89;46.93;98005.06;8187360;29;20247;-87
2022/10/22 15:08:00;;;;;;;0.00;0.00;;;;;;;21.72;47.01;98003.94;8186863;29;20278;-88
2022/10/22 15:12:05;;;;;;;0.00;0.00;;;;;;;21.58;47.54;98002.56;8188972;29;20237;-86
2022/10/22 15:16:10;;;;;;;0.00;0.00;;;;;;;21.28;48.02;97999.00;8186808;29;20531;-88
2022/10/22 15:20:13;;;;;;;0.00;0.00;;;;;;;21.19;48.30;97997.19;8188386;29;20233;-85
2022/10/22 15:24:17;;;;;;;0.00;0.00;;;;;;;21.10;49.17;98003.25;8184086;29;20542;-87
2022/10/22 15:28:22;;;;;;;0.00;0.00;;;;;;;21.03;49.04;97999.47;8186810;29;20235;-88
2022/10/22 15:32:27;;;;;;;0.00;0.00;;;;;;;20.86;49.84;98012.28;8186371;29;20246;-86
2022/10/22 15:36:29;;;;;;;0.00;0.00;;;;;;;20.79;50.75;98016.44;8186077;29;20231;-83
2022/10/22 15:40:32;;;;;;;0.00;0.00;;;;;;;20.72;51.64;98019.72;8186168;29;20243;-87
2022/10/22 15:44:36;;;;;;;0.00;0.00;;;;;;;20.70;51.39;98025.94;8191445;29;20239;-85
2022/10/22 15:48:39;;;;;;;0.00;0.00;;;;;;;20.63;51.42;98029.22;8207259;28;20242;-85
2022/10/22 15:52:42;;;;;;;0.13;0.13;;;;;;;20.61;52.24;98037.22;8192874;29;20251;-85
2022/10/22 15:56:45;;;;;;;0.00;0.00;;;;;;;20.57;52.90;98045.50;8192145;29;20251;-86
2022/10/22 16:00:49;;;;;;;0.00;0.00;;;;;;;20.50;52.78;98053.91;8192112;29;20235;-87
2022/10/22 16:04:52;;;;;;;0.00;0.00;;;;;;;20.37;53.00;98055.88;8192039;29;20242;-88
2022/10/22 16:08:56;;;;;;;0.00;0.00;;;;;;;20.40;54.34;98052.16;8191531;29;20254;-87
2022/10/22 16:12:59;;;;;;;0.00;0.00;;;;;;;20.35;53.52;98060.41;8191646;29;20294;-83
2022/10/22 16:17:03;;;;;;;0.00;0.00;;;;;;;20.31;54.55;98066.88;8191575;29;20602;-90
2022/10/22 16:21:06;;;;;;;0.00;0.00;;;;;;;20.24;54.87;98074.47;8192199;29;20452;-89
2022/10/22 16:25:09;;;;;;;0.00;0.00;;;;;;;20.07;54.75;98075.03;8194865;29;20434;-91
2022/10/22 16:29:12;;;;;;;0.00;0.00;;;;;;;20.10;55.46;98087.91;8193650;29;20239;-88
2022/10/22 16:33:15;;;;;;;0.00;0.00;;;;;;;20.00;55.58;98094.88;8190907;29;20239;-88
2022/10/22 16:37:18;;;;;;;0.00;0.00;;;;;;;19.88;56.32;98092.28;8190988;29;20235;-89
2022/10/22 16:41:23;;;;;;;0.00;0.00;;;;;;;19.79;57.40;98097.44;8193241;29;20231;-88
2022/10/22 16:45:26;;;;;;;0.00;0.00;;;;;;;19.73;57.67;98106.66;8191318;29;20282;-90
2022/10/22 16:49:30;;;;;;;0.00;0.00;;;;;;;19.69;57.72;98097.31;8191039;29;20441;-88
2022/10/22 16:53:33;;;;;;;0.00;0.00;;;;;;;19.52;58.44;98103.91;8190253;29;20235;-87
2022/10/22 16:57:41;;;;;;;0.00;0.00;;;;;;;19.52;57.99;98104.72;8222376;28;20521;-86
2022/10/22 17:01:44;;;;;;;0.33;0.10;;;;;;;19.47;57.96;98106.88;8221619;28;20563;-85
2022/10/22 17:05:48;;;;;;;0.00;0.00;;;;;;;19.23;58.40;98108.78;8221830;28;20242;-83
2022/10/22 17:09:51;;;;;;;0.00;0.00;;;;;;;19.09;58.68;98105.44;8221697;28;20522;-87
2022/10/22 17:13:54;;;;;;;0.00;0.00;;;;;;;19.01;58.62;98110.44;8221542;28;20300;-83
2022/10/22 17:17:59;;;;;;;0.00;0.00;;;;;;;18.89;58.79;98114.03;8221485;28;20246;-83
2022/10/22 17:22:08;;;;;;;0.00;0.00;;;;;;;18.82;59.40;98108.38;8220672;28;20238;-83
2022/10/22 17:26:21;;;;;;;0.00;0.00;;;;;;;18.74;59.64;98105.47;8219093;28;20572;-83
2022/10/22 17:30:27;;;;;;;0.00;0.00;;;;;;;18.63;59.31;98103.66;8219181;28;20230;-81
2022/10/22 17:34:34;;;;;;;0.00;0.00;;;;;;;18.52;59.90;98103.63;8218367;28;20652;-81
2022/10/22 17:38:44;;;;;;;0.00;0.00;;;;;;;18.47;60.35;98111.84;8201936;28;20230;-81
2022/10/22 17:42:50;;;;;;;0.00;0.00;;;;;;;18.38;60.30;98119.56;8207628;28;20237;-82
2022/10/22 17:46:56;;;;;;;0.00;0.00;;;;;;;18.28;60.34;98115.00;8215634;28;20262;-82
2022/10/22 17:50:59;;;;;;;0.00;0.00;;;;;;;18.16;60.91;98118.50;8219675;28;20236;-81
2022/10/22 17:55:04;;;;;;;0.00;0.00;;;;;;;18.14;60.70;98121.25;8220162;28;20229;-82
2022/10/22 17:59:07;;;;;;;0.00;0.00;;;;;;;18.09;60.67;98122.53;8219819;28;20238;-82
2022/10/22 18:03:10;;;;;;;0.00;0.00;;;;;;;18.05;60.28;98119.28;8219994;28;20452;-82
2022/10/22 18:07:14;;;;;;;0.00;0.00;;;;;;;17.89;60.70;98129.19;8218622;28;20268;-82
2022/10/22 18:11:20;;;;;;;0.00;0.00;;;;;;;17.87;60.83;98118.81;8219379;28;20237;-80
2022/10/22 18:15:23;;;;;;;0.00;0.00;;;;;;;17.86;61.15;98122.41;8219385;28;20446;-89
2022/10/22 18:19:25;;;;;;;0.00;0.00;;;;;;;17.85;61.39;98120.72;8220498;28;20235;-88
2022/10/22 18:23:28;;;;;;;0.00;0.00;;;;;;;17.74;61.05;98126.72;8220673;28;20235;-90
2022/10/22 18:27:33;;;;;;;0.00;0.00;;;;;;;17.70;61.02;98127.84;8219924;28;20235;-93
2022/10/22 18:31:36;;;;;;;0.00;0.00;;;;;;;17.57;61.38;98124.44;8219509;28;20242;-89
2022/10/22 18:35:40;;;;;;;0.00;0.00;;;;;;;17.53;61.66;98133.44;8219274;28;20233;-85
2022/10/22 18:39:42;;;;;;;0.00;0.00;;;;;;;17.50;61.29;98137.13;8218256;28;20247;-84
2022/10/22 18:43:52;;;;;;;0.00;0.00;;;;;;;17.51;61.27;98132.72;8218788;28;20241;-86
2022/10/22 18:48:04;;;;;;;0.00;0.00;;;;;;;17.44;60.98;98136.69;8212770;28;20237;-88
2022/10/22 18:52:11;;;;;;;0.00;0.00;;;;;;;17.37;61.00;98146.78;8203812;28;20235;-86
2022/10/22 18:56:26;;;;;;;0.00;0.00;;;;;;;17.37;61.15;98141.53;8200667;28;20254;-83
2022/10/22 19:00:37;;;;;;;0.00;0.00;;;;;;;17.31;61.34;98145.41;8216582;28;20231;-83
2022/10/22 19:04:46;;;;;;;0.00;0.00;;;;;;;17.25;61.62;98151.09;8193181;28;20231;-85
2022/10/22 19:08:54;;;;;;;0.00;0.00;;;;;;;17.17;61.57;98142.91;8174069;29;20434;-84
2022/10/22 19:13:04;;;;;;;0.00;0.00;;;;;;;17.08;62.15;98152.22;8176744;29;20461;-84
2022/10/22 19:17:15;;;;;;;0.00;0.00;;;;;;;17.02;61.71;98162.25;8180315;29;20478;-87